Time;durP1;ratioP1;P1;durP2;ratioP2;P2;SDS_P1;SDS_P2;PMS_P1;PMS_P2;Temp;Humidity;BMP_temperature;BMP_pressure;BME280_temperature;BME280_humidity;BME280_pressure;Samples;Min_cycle;Max_cycle;Signal;HPM_P1;HPM_P2
2023/04/23 00:00:53;;;;;;;2.37;2.17;;;13.30;88.70;;;;;;5051262;28;20668;-70
2023/04/23 00:03:23;;;;;;;1.87;1.50;;;13.20;90.30;;;;;;5051049;28;20627;-70
2023/04/23 00:05:53;;;;;;;1.60;1.50;;;13.30;90.20;;;;;;5050623;28;21360;-70
2023/04/23 00:08:20;;;;;;;0.90;0.87;;;13.30;89.60;;;;;;5050478;28;21209;-70
2023/04/23 00:10:48;;;;;;;1.50;1.20;;;13.30;90.40;;;;;;5051159;28;20671;-70
2023/04/23 00:13:15;;;;;;;1.20;1.07;;;13.30;90.30;;;;;;5051345;28;20637;-70
2023/04/23 00:15:43;;;;;;;1.23;1.00;;;13.30;90.10;;;;;;5051097;28;20682;-70
2023/04/23 00:18:11;;;;;;;1.60;1.50;;;13.30;90.00;;;;;;5050335;28;20625;-70
2023/04/23 00:20:38;;;;;;;1.50;1.40;;;13.30;89.90;;;;;;5051044;28;20661;-70
2023/04/23 00:23:04;;;;;;;1.50;1.40;;;13.20;90.20;;;;;;5051286;28;20995;-70
2023/04/23 00:25:32;;;;;;;2.80;1.73;;;13.20;90.40;;;;;;5050616;28;20669;-70
2023/04/23 00:27:58;;;;;;;2.50;1.27;;;13.20;90.80;;;;;;5050639;28;20625;-70
2023/04/23 00:30:25;;;;;;;1.73;1.40;;;13.30;90.90;;;;;;5050332;28;20679;-70
2023/04/23 00:32:52;;;;;;;1.40;1.30;;;13.30;90.80;;;;;;5050981;28;21176;-70
2023/04/23 00:35:20;;;;;;;2.17;1.97;;;13.20;91.30;;;;;;5044064;28;20644;-70
2023/04/23 00:37:47;;;;;;;0.97;0.97;;;13.10;91.00;;;;;;5050601;28;20643;-70
2023/04/23 00:40:14;;;;;;;1.60;1.13;;;13.20;91.50;;;;;;5044294;28;20645;-70
2023/04/23 00:42:41;;;;;;;1.10;1.00;;;13.10;91.20;;;;;;5040991;28;20639;-70
2023/04/23 00:45:08;;;;;;;1.90;1.50;;;13.10;92.10;;;;;;5049845;28;20743;-70
2023/04/23 00:47:35;;;;;;;3.37;1.73;;;13.10;92.20;;;;;;5044527;28;20625;-70
2023/04/23 00:50:02;;;;;;;1.30;1.20;;;13.10;92.80;;;;;;5048482;28;20628;-69
2023/04/23 00:52:30;;;;;;;1.67;1.10;;;13.10;93.10;;;;;;5049276;28;20624;-70
2023/04/23 00:54:57;;;;;;;1.30;1.20;;;13.00;93.90;;;;;;5049372;28;20639;-70
2023/04/23 00:57:25;;;;;;;0.70;0.70;;;13.00;95.50;;;;;;5048736;28;20666;-69
2023/04/23 00:59:53;;;;;;;1.40;1.30;;;12.90;95.20;;;;;;5047718;28;20633;-69
2023/04/23 01:02:21;;;;;;;1.70;1.60;;;12.90;96.10;;;;;;5040455;28;20645;-69
2023/04/23 01:04:50;;;;;;;1.53;1.43;;;12.80;94.40;;;;;;5047143;28;20640;-70
2023/04/23 01:07:17;;;;;;;1.00;0.93;;;12.80;95.00;;;;;;5048616;28;20675;-70
2023/04/23 01:09:45;;;;;;;0.90;0.90;;;12.90;95.10;;;;;;5047983;28;20624;-70
2023/04/23 01:12:14;;;;;;;2.13;1.37;;;12.90;95.30;;;;;;5047653;28;20744;-70
2023/04/23 01:14:42;;;;;;;1.10;0.80;;;12.90;95.00;;;;;;5048522;28;21267;-70
2023/04/23 01:17:10;;;;;;;1.23;1.13;;;12.80;95.00;;;;;;5048550;28;20643;-70
2023/04/23 01:19:38;;;;;;;1.10;1.00;;;12.80;94.60;;;;;;5048261;28;20640;-69
2023/04/23 01:22:10;;;;;;;1.53;1.00;;;12.90;94.30;;;;;;5048528;28;20652;-70
2023/04/23 01:24:39;;;;;;;1.27;1.00;;;12.80;94.60;;;;;;5049086;28;20640;-69
2023/04/23 01:27:07;;;;;;;2.20;1.10;;;12.90;94.60;;;;;;5047622;28;20717;-69
2023/04/23 01:29:35;;;;;;;0.80;0.80;;;12.90;94.80;;;;;;5048249;28;20787;-70
2023/04/23 01:32:02;;;;;;;1.20;1.07;;;12.80;95.30;;;;;;5048656;28;20751;-70
2023/04/23 01:34:30;;;;;;;1.27;1.17;;;12.80;94.80;;;;;;5048803;28;21228;-70
2023/04/23 01:36:58;;;;;;;0.87;0.87;;;12.70;95.50;;;;;;5047823;28;21116;-70
2023/04/23 01:39:27;;;;;;;1.07;0.90;;;12.70;95.00;;;;;;5037559;28;20661;-69
2023/04/23 01:41:54;;;;;;;2.27;1.53;;;12.70;95.00;;;;;;5045371;28;20649;-69
2023/04/23 01:44:23;;;;;;;1.60;1.23;;;12.70;95.20;;;;;;5011215;28;1070690;-70
2023/04/23 01:46:50;;;;;;;0.80;0.80;;;12.70;95.60;;;;;;5048617;28;20760;-70
2023/04/23 01:49:18;;;;;;;1.00;1.00;;;12.60;95.60;;;;;;5048761;28;20989;-70
2023/04/23 01:51:45;;;;;;;1.37;1.13;;;12.60;95.60;;;;;;5049006;28;21244;-70
2023/04/23 01:54:13;;;;;;;2.00;1.90;;;12.60;95.30;;;;;;5049700;28;20990;-69
2023/04/23 01:56:41;;;;;;;0.90;0.90;;;12.60;95.40;;;;;;5049174;28;20744;-70
2023/04/23 01:59:09;;;;;;;1.10;1.00;;;12.60;95.40;;;;;;5048394;28;20625;-70
2023/04/23 02:01:44;;;;;;;1.97;1.23;;;12.70;95.40;;;;;;5049270;28;20652;-70
2023/04/23 02:04:13;;;;;;;1.43;1.03;;;12.60;95.80;;;;;;5048975;28;20636;-70
2023/04/23 02:06:41;;;;;;;1.27;1.20;;;12.60;95.70;;;;;;5048136;28;21251;-70
2023/04/23 02:09:08;;;;;;;1.30;1.20;;;12.70;95.80;;;;;;5048426;28;20624;-69
2023/04/23 02:11:35;;;;;;;1.13;1.03;;;12.60;96.40;;;;;;5048580;28;20645;-70
2023/04/23 02:14:03;;;;;;;0.90;0.70;;;12.60;96.40;;;;;;5048309;28;20624;-70
2023/04/23 02:16:31;;;;;;;1.33;1.27;;;12.70;96.50;;;;;;5048724;28;20684;-70
2023/04/23 02:18:58;;;;;;;1.30;1.20;;;12.60;96.80;;;;;;5048179;28;21021;-70
2023/04/23 02:21:27;;;;;;;3.13;1.00;;;12.70;97.00;;;;;;5048406;28;21255;-70
2023/04/23 02:23:55;;;;;;;1.10;0.93;;;12.60;97.60;;;;;;5049431;28;20616;-70
2023/04/23 02:26:23;;;;;;;0.60;0.60;;;12.50;98.30;;;;;;5048464;28;20660;-70
2023/04/23 02:28:51;;;;;;;1.30;1.20;;;12.50;99.20;;;;;;5047924;28;20734;-69
2023/04/23 02:31:20;;;;;;;1.13;1.00;;;12.40;99.60;;;;;;5048424;28;20684;-70
2023/04/23 02:33:48;;;;;;;0.90;0.80;;;12.40;99.90;;;;;;5048594;28;20751;-70
2023/04/23 02:36:15;;;;;;;0.80;0.80;;;12.40;99.90;;;;;;5048055;28;20987;-70
2023/04/23 02:38:44;;;;;;;1.50;1.20;;;12.40;99.90;;;;;;5042895;28;21200;-70
2023/04/23 02:41:11;;;;;;;1.27;1.17;;;12.30;99.90;;;;;;5036835;28;20774;-70
2023/04/23 02:43:38;;;;;;;0.80;0.80;;;12.30;99.90;;;;;;5048600;28;20689;-70
2023/04/23 02:46:08;;;;;;;0.70;0.70;;;12.30;99.90;;;;;;5046125;28;21273;-70
2023/04/23 02:48:39;;;;;;;1.17;1.07;;;12.30;99.90;;;;;;5039428;28;20629;-70
2023/04/23 02:51:10;;;;;;;1.20;1.10;;;12.30;99.90;;;;;;5048289;28;20660;-70
2023/04/23 02:53:38;;;;;;;0.87;0.87;;;12.30;99.90;;;;;;5048302;28;21111;-70
2023/04/23 02:56:06;;;;;;;0.80;0.80;;;12.20;99.90;;;;;;5048020;28;21077;-70
2023/04/23 02:58:34;;;;;;;1.20;1.10;;;12.10;99.90;;;;;;5044482;28;21298;-69
2023/04/23 03:01:01;;;;;;;1.20;0.90;;;12.20;99.90;;;;;;5048252;28;20687;-70
2023/04/23 03:03:31;;;;;;;1.20;1.10;;;12.10;99.90;;;;;;5048244;28;20632;-70
2023/04/23 03:06:02;;;;;;;1.47;1.17;;;12.10;99.90;;;;;;5047775;28;20667;-70
2023/04/23 03:08:29;;;;;;;1.20;1.00;;;12.20;99.90;;;;;;5046983;28;20667;-70
2023/04/23 03:10:56;;;;;;;1.20;1.10;;;12.20;99.90;;;;;;5047795;28;21039;-70
2023/04/23 03:13:23;;;;;;;1.27;1.17;;;12.20;99.90;;;;;;5048147;28;20671;-70
2023/04/23 03:15:50;;;;;;;1.33;0.83;;;12.10;99.90;;;;;;5047387;28;20671;-70
2023/04/23 03:18:17;;;;;;;3.43;1.03;;;12.10;99.90;;;;;;5047537;28;20636;-69
2023/04/23 03:20:44;;;;;;;1.13;1.03;;;12.00;99.90;;;;;;5047677;28;20651;-70
2023/04/23 03:23:12;;;;;;;1.20;0.93;;;12.00;99.90;;;;;;5048148;28;20636;-70
2023/04/23 03:25:40;;;;;;;0.87;0.87;;;12.10;99.90;;;;;;5047494;28;20648;-70
2023/04/23 03:28:07;;;;;;;1.50;1.40;;;12.10;99.90;;;;;;5046988;28;20667;-70
2023/04/23 03:30:34;;;;;;;0.60;0.60;;;12.00;99.90;;;;;;5047496;28;20639;-70
2023/04/23 03:33:01;;;;;;;0.73;0.60;;;12.00;99.90;;;;;;5047972;28;20679;-70
2023/04/23 03:35:28;;;;;;;0.83;0.83;;;12.10;99.90;;;;;;5045607;28;20759;-70
2023/04/23 03:37:55;;;;;;;0.50;0.50;;;12.00;99.90;;;;;;5047342;28;20682;-70
2023/04/23 03:40:23;;;;;;;0.93;0.70;;;12.00;99.90;;;;;;5044777;28;20628;-70
2023/04/23 03:42:50;;;;;;;1.50;1.07;;;12.00;99.90;;;;;;5041985;28;20656;-69
2023/04/23 03:45:17;;;;;;;1.07;0.70;;;11.90;99.90;;;;;;5047493;28;20633;-70
2023/04/23 03:47:43;;;;;;;2.00;1.53;;;11.90;99.90;;;;;;5044469;28;21057;-70
2023/04/23 03:50:12;;;;;;;0.87;0.73;;;11.90;99.90;;;;;;5047232;28;21153;-70
2023/04/23 03:52:39;;;;;;;1.47;0.73;;;11.90;99.90;;;;;;5046988;28;20993;-70
2023/04/23 03:55:07;;;;;;;1.40;1.20;;;11.80;99.90;;;;;;5047663;28;20631;-70
2023/04/23 03:57:35;;;;;;;0.70;0.70;;;11.80;99.90;;;;;;5047560;28;20732;-70
2023/04/23 04:00:02;;;;;;;0.93;0.93;;;11.80;99.90;;;;;;5046346;28;20624;-70
2023/04/23 04:02:29;;;;;;;0.60;0.60;;;11.70;99.90;;;;;;5047274;28;21197;-70
2023/04/23 04:04:56;;;;;;;1.07;0.97;;;11.80;99.90;;;;;;5046953;28;20627;-70
2023/04/23 04:07:23;;;;;;;2.17;1.27;;;11.80;99.90;;;;;;5046490;28;20763;-70
2023/04/23 04:09:49;;;;;;;1.67;1.30;;;11.80;99.90;;;;;;5046679;28;20629;-70
2023/04/23 04:12:16;;;;;;;0.83;0.83;;;11.90;99.90;;;;;;5047485;28;20658;-70
2023/04/23 04:14:45;;;;;;;1.57;1.03;;;11.80;99.90;;;;;;5047491;28;20617;-70
2023/04/23 04:17:14;;;;;;;1.10;1.00;;;11.80;99.90;;;;;;5047103;28;20651;-70
2023/04/23 04:19:41;;;;;;;1.20;1.00;;;11.80;99.90;;;;;;5046227;28;20984;-70
2023/04/23 04:22:08;;;;;;;1.43;1.00;;;11.80;99.90;;;;;;5046898;28;20699;-70
2023/04/23 04:24:35;;;;;;;0.83;0.83;;;11.80;99.90;;;;;;5047241;28;20600;-70
2023/04/23 04:27:02;;;;;;;0.80;0.80;;;11.70;99.90;;;;;;5047368;28;20665;-70
2023/04/23 04:29:29;;;;;;;6.23;0.70;;;11.70;99.90;;;;;;5046265;28;20633;-70
2023/04/23 04:31:58;;;;;;;0.90;0.90;;;11.50;99.90;;;;;;5047148;28;20651;-70
2023/04/23 04:34:25;;;;;;;2.87;0.83;;;11.50;99.90;;;;;;5046745;28;20626;-70
2023/04/23 04:36:52;;;;;;;2.40;0.87;;;11.50;99.90;;;;;;5041142;28;20752;-70
2023/04/23 04:39:19;;;;;;;1.50;1.40;;;11.50;99.90;;;;;;5049845;28;20635;-70
2023/04/23 04:41:47;;;;;;;1.00;1.00;;;11.40;99.90;;;;;;5047319;28;21247;-70
2023/04/23 04:44:15;;;;;;;1.90;0.97;;;11.30;99.90;;;;;;5051512;28;20666;-70
2023/04/23 04:46:42;;;;;;;0.70;0.70;;;11.30;99.90;;;;;;5046031;28;20667;-70
2023/04/23 04:49:11;;;;;;;0.70;0.70;;;11.20;99.90;;;;;;5042587;28;20621;-70
2023/04/23 04:51:39;;;;;;;1.10;1.00;;;11.20;99.90;;;;;;5041159;28;20653;-70
2023/04/23 04:54:07;;;;;;;2.27;1.30;;;11.20;99.90;;;;;;5050805;28;20722;-70
2023/04/23 04:56:34;;;;;;;1.53;1.07;;;11.20;99.90;;;;;;5050506;28;20655;-70
2023/04/23 04:59:01;;;;;;;1.00;0.77;;;11.20;99.90;;;;;;5047574;28;21177;-70
2023/04/23 05:01:28;;;;;;;1.17;1.00;;;11.20;99.90;;;;;;5049851;28;20655;-70
2023/04/23 05:03:55;;;;;;;1.27;1.03;;;11.20;99.90;;;;;;5050579;28;20758;-70
2023/04/23 05:06:23;;;;;;;1.23;1.00;;;11.20;99.90;;;;;;5050068;28;20656;-70
2023/04/23 05:08:50;;;;;;;3.53;1.43;;;11.20;99.90;;;;;;5049642;28;21176;-70
2023/04/23 05:11:18;;;;;;;1.40;1.30;;;11.20;99.90;;;;;;5050160;28;20659;-70
2023/04/23 05:13:46;;;;;;;0.90;0.90;;;11.20;99.90;;;;;;5052407;28;21247;-70
2023/04/23 05:16:12;;;;;;;1.20;1.10;;;11.30;99.90;;;;;;5048979;28;20673;-70
2023/04/23 05:18:39;;;;;;;1.30;1.20;;;11.40;99.90;;;;;;5049604;28;21175;-70
2023/04/23 05:21:06;;;;;;;1.17;1.10;;;11.50;99.90;;;;;;5049337;28;21227;-70
2023/04/23 05:23:35;;;;;;;1.90;1.47;;;11.50;99.90;;;;;;5044448;28;20632;-70
2023/04/23 05:26:03;;;;;;;0.80;0.80;;;11.60;99.90;;;;;;5049998;28;20663;-70
2023/04/23 05:28:30;;;;;;;1.10;1.10;;;11.70;99.90;;;;;;5049190;28;20784;-70
2023/04/23 05:30:57;;;;;;;0.70;0.70;;;11.80;99.90;;;;;;5049114;28;21081;-70
2023/04/23 05:33:24;;;;;;;1.07;1.00;;;11.80;99.90;;;;;;5043182;28;21248;-70
2023/04/23 05:35:51;;;;;;;2.83;1.07;;;11.80;99.90;;;;;;5039683;28;20654;-70
2023/04/23 05:38:20;;;;;;;5.07;1.10;;;11.90;99.90;;;;;;5037700;28;20630;-69
2023/04/23 05:40:51;;;;;;;1.33;1.17;;;11.90;99.90;;;;;;5039726;28;20661;-70
2023/04/23 05:43:18;;;;;;;0.73;0.70;;;11.80;99.90;;;;;;5033844;28;20629;-69
2023/04/23 05:45:45;;;;;;;1.17;1.10;;;11.90;99.90;;;;;;5036940;28;20664;-69
2023/04/23 05:48:14;;;;;;;0.90;0.80;;;12.00;99.90;;;;;;5046988;28;20664;-69
2023/04/23 05:50:40;;;;;;;0.77;0.77;;;12.20;99.90;;;;;;5038762;28;21083;-69
2023/04/23 05:53:07;;;;;;;1.00;0.60;;;12.30;99.90;;;;;;5033495;28;20638;-69
2023/04/23 05:55:34;;;;;;;0.60;0.60;;;12.40;99.90;;;;;;5040764;28;20653;-69
2023/04/23 05:58:03;;;;;;;1.20;1.10;;;12.30;99.90;;;;;;5048938;28;21176;-69
2023/04/23 06:00:31;;;;;;;1.43;0.70;;;12.30;99.90;;;;;;5048869;28;20764;-69
2023/04/23 06:02:58;;;;;;;1.33;1.13;;;12.40;99.90;;;;;;5048947;28;20714;-69
2023/04/23 06:05:24;;;;;;;1.50;0.90;;;12.40;99.90;;;;;;5048925;28;21008;-68
2023/04/23 06:07:51;;;;;;;0.90;0.57;;;12.50;99.90;;;;;;5048968;28;21237;-70
2023/04/23 06:10:18;;;;;;;1.00;0.63;;;12.50;99.90;;;;;;5047640;28;21051;-70
2023/04/23 06:12:45;;;;;;;1.20;0.90;;;12.60;99.90;;;;;;5049158;28;20984;-70
2023/04/23 06:15:13;;;;;;;1.03;0.93;;;12.50;99.90;;;;;;5048750;28;20624;-70
2023/04/23 06:17:40;;;;;;;0.40;0.40;;;12.40;99.90;;;;;;5048448;28;21204;-72
2023/04/23 06:20:10;;;;;;;1.23;0.80;;;12.30;99.90;;;;;;5047685;28;20639;-71
2023/04/23 06:22:37;;;;;;;0.73;0.40;;;12.40;99.90;;;;;;5048450;28;20625;-71
2023/04/23 06:25:04;;;;;;;0.40;0.30;;;12.60;99.90;;;;;;5047952;28;21162;-71
2023/04/23 06:27:32;;;;;;;0.87;0.70;;;12.60;99.90;;;;;;5048543;28;20671;-70
2023/04/23 06:29:59;;;;;;;1.63;0.90;;;12.50;99.90;;;;;;5048021;28;20740;-71
2023/04/23 06:32:27;;;;;;;1.50;0.63;;;12.50;99.90;;;;;;5048202;28;20668;-72
2023/04/23 06:34:54;;;;;;;1.07;1.00;;;12.70;99.90;;;;;;5046113;28;20626;-72
2023/04/23 06:37:21;;;;;;;0.93;0.50;;;12.80;99.90;;;;;;5047859;28;20658;-71
2023/04/23 06:39:47;;;;;;;0.50;0.50;;;12.80;99.90;;;;;;5036293;28;20633;-72
2023/04/23 06:42:14;;;;;;;0.70;0.60;;;13.10;99.90;;;;;;5048197;28;20663;-72
2023/04/23 06:44:41;;;;;;;0.50;0.30;;;13.10;99.90;;;;;;5048484;28;20980;-71
2023/04/23 06:47:08;;;;;;;1.10;0.90;;;13.00;99.90;;;;;;5047463;28;21437;-70
2023/04/23 06:49:36;;;;;;;0.70;0.70;;;13.00;99.90;;;;;;5047461;28;20627;-72
2023/04/23 06:52:03;;;;;;;0.97;0.67;;;12.90;99.90;;;;;;5040317;28;20758;-72
2023/04/23 06:54:30;;;;;;;0.70;0.47;;;13.10;99.90;;;;;;5032507;28;20628;-71
2023/04/23 06:56:56;;;;;;;0.70;0.50;;;13.00;99.90;;;;;;5047994;28;20657;-71
2023/04/23 06:59:23;;;;;;;0.47;0.47;;;13.00;99.90;;;;;;5047744;28;20629;-72
2023/04/23 07:01:50;;;;;;;0.53;0.40;;;13.10;99.90;;;;;;5046476;28;20661;-71
2023/04/23 07:04:17;;;;;;;1.47;1.37;;;13.40;99.90;;;;;;5046875;28;20620;-72
2023/04/23 07:06:45;;;;;;;0.40;0.30;;;13.40;99.90;;;;;;5047293;28;20672;-71
2023/04/23 07:09:24;;;;;;;0.50;0.40;;;13.30;99.90;;;;;;5046433;28;20680;-71
2023/04/23 07:11:51;;;;;;;1.17;0.40;;;13.50;99.90;;;;;;5047915;28;20655;-71
2023/04/23 07:14:17;;;;;;;1.03;0.67;;;13.70;99.90;;;;;;5048189;28;20635;-73
2023/04/23 07:16:44;;;;;;;0.50;0.50;;;13.80;99.80;;;;;;5046920;28;20688;-73
2023/04/23 07:19:11;;;;;;;1.43;0.60;;;14.10;99.70;;;;;;5046474;28;20641;-71
2023/04/23 07:21:38;;;;;;;0.50;0.40;;;14.20;99.40;;;;;;5047445;28;20656;-72
2023/04/23 07:24:06;;;;;;;0.37;0.37;;;14.30;99.00;;;;;;5047905;28;20632;-72
2023/04/23 07:26:33;;;;;;;0.70;0.40;;;14.00;97.70;;;;;;5047301;28;20658;-71
2023/04/23 07:29:01;;;;;;;0.63;0.50;;;13.70;98.20;;;;;;5047102;28;20662;-71
2023/04/23 07:31:28;;;;;;;0.67;0.50;;;13.70;99.00;;;;;;5047476;28;20649;-71
2023/04/23 07:33:55;;;;;;;0.73;0.73;;;13.70;97.60;;;;;;5047355;28;21170;-72
2023/04/23 07:36:24;;;;;;;0.60;0.60;;;13.70;97.90;;;;;;5046713;28;20653;-71
2023/04/23 07:38:51;;;;;;;0.50;0.40;;;13.90;98.50;;;;;;5046532;28;20685;-72
2023/04/23 07:41:19;;;;;;;0.53;0.47;;;14.00;98.10;;;;;;5038185;28;20655;-73
2023/04/23 07:43:46;;;;;;;0.70;0.50;;;14.20;97.40;;;;;;5042058;28;20641;-73
2023/04/23 07:46:13;;;;;;;0.50;0.40;;;14.00;95.90;;;;;;5046527;28;20773;-73
2023/04/23 07:48:40;;;;;;;0.97;0.70;;;14.00;96.30;;;;;;5046803;28;21287;-74
2023/04/23 07:51:09;;;;;;;1.33;1.23;;;14.30;97.20;;;;;;5047220;28;21088;-74
2023/04/23 07:53:35;;;;;;;1.17;1.07;;;14.50;95.60;;;;;;5046466;28;20633;-74
2023/04/23 07:56:02;;;;;;;0.57;0.57;;;14.40;96.30;;;;;;5047131;28;20666;-74
2023/04/23 07:58:31;;;;;;;0.63;0.50;;;14.40;95.60;;;;;;5041971;28;20635;-74
2023/04/23 08:00:58;;;;;;;1.13;0.87;;;14.30;95.40;;;;;;5037924;28;21276;-74
2023/04/23 08:03:25;;;;;;;0.83;0.70;;;14.30;95.40;;;;;;5047319;28;20635;-74
2023/04/23 08:05:52;;;;;;;0.50;0.50;;;14.30;95.80;;;;;;5046712;28;20655;-73
2023/04/23 08:08:19;;;;;;;0.60;0.60;;;14.30;95.20;;;;;;5046429;28;21223;-73
2023/04/23 08:10:46;;;;;;;1.23;0.60;;;14.40;95.70;;;;;;5047160;28;20657;-74
2023/04/23 08:13:13;;;;;;;0.83;0.60;;;14.70;95.50;;;;;;5048927;28;20639;-74
2023/04/23 08:15:41;;;;;;;0.90;0.70;;;14.80;94.80;;;;;;5050927;28;20657;-74
2023/04/23 08:18:07;;;;;;;0.90;0.67;;;15.10;94.40;;;;;;5050814;28;20623;-74
2023/04/23 08:20:34;;;;;;;1.40;0.87;;;15.20;94.70;;;;;;5050697;28;20658;-74
2023/04/23 08:23:02;;;;;;;1.03;0.67;;;15.10;93.50;;;;;;5051083;28;20646;-74
2023/04/23 08:25:29;;;;;;;0.90;0.80;;;15.20;93.60;;;;;;5051144;28;20646;-74
2023/04/23 08:27:56;;;;;;;0.70;0.57;;;15.30;92.30;;;;;;5050684;28;20756;-74
2023/04/23 08:30:23;;;;;;;0.43;0.43;;;15.40;92.10;;;;;;5050272;28;20634;-75
2023/04/23 08:32:53;;;;;;;0.70;0.50;;;15.50;93.00;;;;;;5050318;28;21185;-75
2023/04/23 08:35:20;;;;;;;0.67;0.67;;;15.60;92.30;;;;;;5050819;28;20759;-74
2023/04/23 08:37:47;;;;;;;0.80;0.80;;;15.40;91.70;;;;;;5050092;28;20624;-74
2023/04/23 08:40:14;;;;;;;0.50;0.50;;;15.50;92.80;;;;;;5049685;28;20629;-75
2023/04/23 08:42:43;;;;;;;0.60;0.40;;;15.60;92.60;;;;;;5050654;28;20628;-74
2023/04/23 08:45:11;;;;;;;0.53;0.50;;;15.80;92.90;;;;;;5050753;28;20635;-74
2023/04/23 08:47:42;;;;;;;0.60;0.57;;;16.10;92.00;;;;;;5044688;28;21603;-74
2023/04/23 08:50:13;;;;;;;0.60;0.60;;;16.10;90.90;;;;;;5049587;28;20754;-75
2023/04/23 08:52:41;;;;;;;1.00;0.90;;;16.30;91.20;;;;;;5050560;28;20628;-75
2023/04/23 08:55:10;;;;;;;0.63;0.63;;;16.40;90.70;;;;;;5050159;28;20624;-75
2023/04/23 08:57:39;;;;;;;0.73;0.67;;;16.70;90.80;;;;;;5050271;28;20643;-74
2023/04/23 09:00:09;;;;;;;0.80;0.70;;;16.80;90.40;;;;;;5049545;28;20629;-75
2023/04/23 09:02:36;;;;;;;0.80;0.50;;;17.00;87.40;;;;;;5050554;28;20732;-73
2023/04/23 09:05:03;;;;;;;1.83;0.70;;;17.00;86.80;;;;;;5050539;28;21236;-72
2023/04/23 09:07:32;;;;;;;0.67;0.67;;;16.90;87.70;;;;;;5049790;28;20640;-72
2023/04/23 09:09:59;;;;;;;0.70;0.60;;;16.80;87.00;;;;;;5034307;28;20696;-72
2023/04/23 09:12:26;;;;;;;0.50;0.50;;;16.90;87.40;;;;;;5050482;28;20649;-72
2023/04/23 09:14:53;;;;;;;1.53;0.80;;;16.70;84.60;;;;;;5050029;28;20633;-75
2023/04/23 09:17:22;;;;;;;0.70;0.70;;;16.90;85.10;;;;;;5049826;28;20662;-75
2023/04/23 09:19:51;;;;;;;0.60;0.50;;;17.00;85.50;;;;;;5048687;28;21277;-74
2023/04/23 09:22:39;;;;;;;0.50;0.50;;;16.60;84.20;;;;;;5050104;28;20660;-75
2023/04/23 09:25:07;;;;;;;0.50;0.50;;;16.60;86.70;;;;;;5034792;28;20955;-74
2023/04/23 09:27:35;;;;;;;0.80;0.80;;;16.70;87.80;;;;;;5050174;28;20625;-75
2023/04/23 09:30:03;;;;;;;0.57;0.57;;;16.50;84.80;;;;;;5049064;28;20666;-75
2023/04/23 09:32:32;;;;;;;0.50;0.50;;;16.60;87.30;;;;;;5049330;28;20631;-75
2023/04/23 09:34:59;;;;;;;0.80;0.77;;;16.80;86.80;;;;;;5045310;28;20634;-75
2023/04/23 09:37:26;;;;;;;0.70;0.60;;;17.10;86.60;;;;;;5048181;28;21216;-75
2023/04/23 09:39:55;;;;;;;0.63;0.63;;;17.30;85.10;;;;;;5034565;28;20647;-75
2023/04/23 09:42:24;;;;;;;1.60;0.77;;;17.20;85.20;;;;;;5047413;28;20653;-75
2023/04/23 09:44:56;;;;;;;0.73;0.70;;;17.30;84.70;;;;;;5049165;28;20645;-75
2023/04/23 09:47:23;;;;;;;1.50;1.40;;;17.10;79.20;;;;;;5049870;28;21044;-75
2023/04/23 09:49:50;;;;;;;1.27;0.80;;;17.10;79.30;;;;;;5047092;28;20649;-74
2023/04/23 09:52:18;;;;;;;0.77;0.60;;;17.00;77.60;;;;;;5049618;28;21133;-74
2023/04/23 09:54:46;;;;;;;0.70;0.70;;;17.30;78.30;;;;;;5049456;28;21278;-75
2023/04/23 09:57:14;;;;;;;0.77;0.70;;;17.50;77.10;;;;;;5050005;28;20646;-74
2023/04/23 09:59:41;;;;;;;0.43;0.43;;;17.30;79.20;;;;;;5048781;28;20744;-75
2023/04/23 10:02:09;;;;;;;0.70;0.30;;;17.00;76.30;;;;;;5049322;28;20685;-74
2023/04/23 10:04:36;;;;;;;0.50;0.50;;;16.80;77.00;;;;;;5048952;28;21185;-75
2023/04/23 10:07:07;;;;;;;0.50;0.50;;;17.00;78.60;;;;;;5049271;28;20736;-75
2023/04/23 10:09:34;;;;;;;0.60;0.60;;;17.10;78.40;;;;;;5048699;28;20667;-75
2023/04/23 10:12:02;;;;;;;0.60;0.50;;;17.20;78.20;;;;;;5048434;28;20645;-75
2023/04/23 10:14:30;;;;;;;1.30;0.63;;;17.40;78.10;;;;;;5049543;28;20635;-75
2023/04/23 10:16:59;;;;;;;0.40;0.30;;;17.70;77.40;;;;;;5049404;28;20642;-75
2023/04/23 10:19:27;;;;;;;0.60;0.60;;;17.80;76.70;;;;;;5048382;28;20629;-74
2023/04/23 10:21:59;;;;;;;0.40;0.40;;;17.70;76.00;;;;;;5048419;28;20637;-75
2023/04/23 10:24:29;;;;;;;0.60;0.60;;;17.80;77.80;;;;;;5048706;28;20653;-75
2023/04/23 10:26:59;;;;;;;1.33;0.80;;;18.00;76.80;;;;;;5049284;28;20653;-75
2023/04/23 10:29:28;;;;;;;0.50;0.50;;;18.00;76.20;;;;;;5048501;28;20653;-75
2023/04/23 10:31:58;;;;;;;0.70;0.70;;;18.20;79.60;;;;;;5047901;28;20701;-75
2023/04/23 10:34:26;;;;;;;0.40;0.40;;;18.30;77.60;;;;;;5049180;28;20630;-75
2023/04/23 10:36:53;;;;;;;0.77;0.77;;;18.50;75.40;;;;;;5047560;28;20660;-75
2023/04/23 10:39:20;;;;;;;1.13;0.90;;;18.30;71.30;;;;;;5048456;28;21178;-75
2023/04/23 10:41:48;;;;;;;0.80;0.57;;;18.20;74.90;;;;;;5048542;28;21232;-75
2023/04/23 10:44:16;;;;;;;0.73;0.70;;;18.30;75.90;;;;;;5049001;28;20629;-75
2023/04/23 10:46:52;;;;;;;0.53;0.50;;;18.50;74.70;;;;;;5048359;28;21168;-75
2023/04/23 10:49:22;;;;;;;0.67;0.60;;;18.30;75.90;;;;;;5047283;28;20654;-74
2023/04/23 10:51:49;;;;;;;0.70;0.70;;;18.50;75.70;;;;;;5048619;28;21200;-75
2023/04/23 10:54:19;;;;;;;0.50;0.50;;;18.60;74.60;;;;;;5048756;28;21013;-75
2023/04/23 10:56:45;;;;;;;0.47;0.47;;;18.90;75.70;;;;;;5048462;28;20744;-75
2023/04/23 10:59:19;;;;;;;0.50;0.40;;;19.10;73.80;;;;;;5036576;28;21190;-75
2023/04/23 11:01:48;;;;;;;0.40;0.30;;;19.10;70.40;;;;;;5046857;28;21202;-75
2023/04/23 11:04:23;;;;;;;0.50;0.50;;;19.10;74.20;;;;;;5035902;28;20638;-75
2023/04/23 11:06:55;;;;;;;0.77;0.70;;;19.40;71.50;;;;;;5048368;28;20649;-75
2023/04/23 11:09:30;;;;;;;0.60;0.60;;;19.30;71.70;;;;;;5047017;28;20658;-75
2023/04/23 11:11:57;;;;;;;0.50;0.40;;;19.70;72.90;;;;;;5047659;28;20712;-75
2023/04/23 11:14:35;;;;;;;0.50;0.40;;;19.80;70.30;;;;;;5047578;28;20658;-75
2023/04/23 11:17:01;;;;;;;0.50;0.50;;;19.90;67.50;;;;;;5048130;28;20650;-75
2023/04/23 11:19:30;;;;;;;0.50;0.50;;;20.10;66.20;;;;;;5047304;28;20636;-75
2023/04/23 11:22:01;;;;;;;0.40;0.40;;;20.20;66.10;;;;;;5047923;28;20681;-75
2023/04/23 11:24:29;;;;;;;0.90;0.60;;;20.10;67.10;;;;;;5047742;28;20623;-75
2023/04/23 11:26:57;;;;;;;0.50;0.50;;;20.20;66.80;;;;;;5047540;28;20653;-75
2023/04/23 11:29:25;;;;;;;1.00;0.70;;;20.00;66.10;;;;;;5047170;28;20654;-75
2023/04/23 11:31:52;;;;;;;0.80;0.80;;;20.00;68.70;;;;;;5047953;28;20634;-75
2023/04/23 11:34:19;;;;;;;1.10;0.50;;;20.20;66.70;;;;;;5047925;28;20997;-73
2023/04/23 11:36:49;;;;;;;0.60;0.60;;;20.20;64.50;;;;;;5047860;28;20647;-72
2023/04/23 11:39:17;;;;;;;0.57;0.57;;;20.00;66.40;;;;;;5043290;28;20634;-72
2023/04/23 11:41:45;;;;;;;0.50;0.50;;;20.10;66.60;;;;;;5042429;28;20657;-72
2023/04/23 11:44:12;;;;;;;0.40;0.40;;;19.90;65.00;;;;;;5047524;28;20638;-72
2023/04/23 11:46:39;;;;;;;0.77;0.60;;;20.30;66.50;;;;;;5044643;28;20660;-72
2023/04/23 11:49:08;;;;;;;0.77;0.40;;;20.60;66.00;;;;;;5051322;28;20663;-73
2023/04/23 11:51:35;;;;;;;0.53;0.53;;;21.20;66.10;;;;;;5051555;28;20745;-75
2023/04/23 11:54:06;;;;;;;0.40;0.40;;;21.70;65.40;;;;;;5051581;28;20661;-75
2023/04/23 11:56:34;;;;;;;0.50;0.40;;;21.50;63.40;;;;;;5051407;28;20657;-72
2023/04/23 11:59:02;;;;;;;0.63;0.63;;;21.30;64.00;;;;;;5051211;28;20658;-75
2023/04/23 12:01:41;;;;;;;0.70;0.70;;;21.20;61.50;;;;;;5051068;28;20646;-75
2023/04/23 12:04:12;;;;;;;0.40;0.40;;;21.00;63.60;;;;;;5047041;28;21190;-74
2023/04/23 12:06:41;;;;;;;0.50;0.40;;;22.10;63.70;;;;;;5051416;28;20661;-73
2023/04/23 12:09:10;;;;;;;0.50;0.50;;;22.80;60.30;;;;;;5050525;28;20994;-74
2023/04/23 12:11:37;;;;;;;0.97;0.97;;;22.90;59.30;;;;;;5050892;28;20652;-74
2023/04/23 12:14:05;;;;;;;0.50;0.50;;;22.40;58.70;;;;;;5051284;28;20633;-73
2023/04/23 12:16:36;;;;;;;0.63;0.50;;;21.90;59.00;;;;;;5051331;28;20646;-74
2023/04/23 12:19:03;;;;;;;1.03;0.70;;;21.50;59.80;;;;;;5050139;28;20629;-72
2023/04/23 12:21:30;;;;;;;0.60;0.60;;;21.10;61.00;;;;;;5051549;28;20959;-73
2023/04/23 12:23:57;;;;;;;0.67;0.50;;;20.60;60.90;;;;;;5051029;28;21191;-72
2023/04/23 12:26:28;;;;;;;0.60;0.60;;;20.30;62.60;;;;;;5050717;28;20647;-72
2023/04/23 12:28:58;;;;;;;0.50;0.50;;;20.30;60.90;;;;;;5050290;28;20693;-72
2023/04/23 12:31:26;;;;;;;0.60;0.60;;;20.60;62.00;;;;;;5051534;28;20654;-72
2023/04/23 12:34:02;;;;;;;0.30;0.30;;;21.20;61.10;;;;;;5050905;28;20746;-73
2023/04/23 12:36:30;;;;;;;0.50;0.50;;;22.30;60.50;;;;;;5051004;28;20653;-73
2023/04/23 12:39:19;;;;;;;0.60;0.60;;;23.20;59.40;;;;;;5050173;28;20693;-74
2023/04/23 12:41:48;;;;;;;0.40;0.37;;;23.30;58.40;;;;;;5049832;28;20658;-75
2023/04/23 12:44:15;;;;;;;0.80;0.80;;;23.60;58.80;;;;;;5046077;28;20685;-75
2023/04/23 12:46:42;;;;;;;0.90;0.90;;;23.90;57.30;;;;;;5048304;28;20666;-73
2023/04/23 12:49:08;;;;;;;1.20;1.10;;;24.00;55.70;;;;;;5047222;28;20699;-74
2023/04/23 12:51:35;;;;;;;0.63;0.63;;;23.80;58.40;;;;;;5046996;28;20664;-74